sensor_id;sensor_type;location;lat;lon;timestamp;temperature;humidity
32097;DHT22;18610;49.916;8.284;2023-05-17T00:00:12;11.00;99.90
32097;DHT22;18610;49.916;8.284;2023-05-17T00:02:39;11.00;99.90
32097;DHT22;18610;49.916;8.284;2023-05-17T00:05:06;10.90;99.90
32097;DHT22;18610;49.916;8.284;2023-05-17T00:07:33;10.90;99.90
32097;DHT22;18610;49.916;8.284;2023-05-17T00:09:59;10.90;99.90
32097;DHT22;18610;49.916;8.284;2023-05-17T00:12:27;10.90;99.90
32097;DHT22;18610;49.916;8.284;2023-05-17T00:14:54;10.90;99.90
32097;DHT22;18610;49.916;8.284;2023-05-17T00:17:21;10.80;99.90
32097;DHT22;18610;49.916;8.284;2023-05-17T00:19:47;10.80;99.90
32097;DHT22;18610;49.916;8.284;2023-05-17T00:22:14;10.80;99.90
32097;DHT22;18610;49.916;8.284;2023-05-17T00:24:41;10.80;99.90
32097;DHT22;18610;49.916;8.284;2023-05-17T00:27:07;10.80;99.90
32097;DHT22;18610;49.916;8.284;2023-05-17T00:29:35;10.70;99.90
32097;DHT22;18610;49.916;8.284;2023-05-17T00:32:02;10.70;99.90
32097;DHT22;18610;49.916;8.284;2023-05-17T00:34:29;10.60;99.90
32097;DHT22;18610;49.916;8.284;2023-05-17T00:36:56;10.50;99.90
32097;DHT22;18610;49.916;8.284;2023-05-17T00:39:22;10.50;99.90
32097;DHT22;18610;49.916;8.284;2023-05-17T00:41:49;10.40;99.90
32097;DHT22;18610;49.916;8.284;2023-05-17T00:44:16;10.30;99.90
32097;DHT22;18610;49.916;8.284;2023-05-17T00:46:44;10.20;99.90
32097;DHT22;18610;49.916;8.284;2023-05-17T00:49:11;10.10;99.90
32097;DHT22;18610;49.916;8.284;2023-05-17T00:51:38;10.10;99.90
32097;DHT22;18610;49.916;8.284;2023-05-17T00:54:05;10.00;99.90
32097;DHT22;18610;49.916;8.284;2023-05-17T00:56:32;9.90;99.90
32097;DHT22;18610;49.916;8.284;2023-05-17T00:58:59;9.90;99.90
32097;DHT22;18610;49.916;8.284;2023-05-17T01:01:26;9.80;99.90
32097;DHT22;18610;49.916;8.284;2023-05-17T01:03:54;9.80;99.90
32097;DHT22;18610;49.916;8.284;2023-05-17T01:06:21;9.80;99.90
32097;DHT22;18610;49.916;8.284;2023-05-17T01:08:47;9.70;99.90
32097;DHT22;18610;49.916;8.284;2023-05-17T01:11:34;9.70;99.90
32097;DHT22;18610;49.916;8.284;2023-05-17T01:14:12;9.60;99.90
32097;DHT22;18610;49.916;8.284;2023-05-17T01:16:47;9.50;99.90
32097;DHT22;18610;49.916;8.284;2023-05-17T01:19:26;9.40;99.90
32097;DHT22;18610;49.916;8.284;2023-05-17T01:22:09;9.40;99.90
32097;DHT22;18610;49.916;8.284;2023-05-17T01:24:48;9.30;99.90
32097;DHT22;18610;49.916;8.284;2023-05-17T01:27:17;9.30;99.90
32097;DHT22;18610;49.916;8.284;2023-05-17T01:29:46;9.20;99.90
32097;DHT22;18610;49.916;8.284;2023-05-17T01:32:15;9.20;99.90
32097;DHT22;18610;49.916;8.284;2023-05-17T01:34:42;9.10;99.90
32097;DHT22;18610;49.916;8.284;2023-05-17T01:37:09;9.10;99.90
32097;DHT22;18610;49.916;8.284;2023-05-17T01:39:35;9.00;99.90
32097;DHT22;18610;49.916;8.284;2023-05-17T01:42:07;9.00;99.90
32097;DHT22;18610;49.916;8.284;2023-05-17T01:44:45;9.00;99.90
32097;DHT22;18610;49.916;8.284;2023-05-17T01:47:17;8.90;99.90
32097;DHT22;18610;49.916;8.284;2023-05-17T01:49:47;8.90;99.90
32097;DHT22;18610;49.916;8.284;2023-05-17T01:52:19;8.80;99.90
32097;DHT22;18610;49.916;8.284;2023-05-17T01:54:52;8.80;99.90
32097;DHT22;18610;49.916;8.284;2023-05-17T01:57:26;8.70;99.90
32097;DHT22;18610;49.916;8.284;2023-05-17T01:59:59;8.70;99.90
32097;DHT22;18610;49.916;8.284;2023-05-17T02:02:27;8.60;99.90
32097;DHT22;18610;49.916;8.284;2023-05-17T02:04:54;8.60;99.90
32097;DHT22;18610;49.916;8.284;2023-05-17T02:07:20;8.50;99.90
32097;DHT22;18610;49.916;8.284;2023-05-17T02:09:47;8.50;99.90
32097;DHT22;18610;49.916;8.284;2023-05-17T02:12:14;8.40;99.90
32097;DHT22;18610;49.916;8.284;2023-05-17T02:14:40;8.40;99.90
32097;DHT22;18610;49.916;8.284;2023-05-17T02:17:08;8.40;99.90
32097;DHT22;18610;49.916;8.284;2023-05-17T02:19:35;8.40;99.90
32097;DHT22;18610;49.916;8.284;2023-05-17T02:22:02;8.40;99.90
32097;DHT22;18610;49.916;8.284;2023-05-17T02:24:28;8.40;99.90
32097;DHT22;18610;49.916;8.284;2023-05-17T02:26:55;8.40;99.90
32097;DHT22;18610;49.916;8.284;2023-05-17T02:29:22;8.40;99.90
32097;DHT22;18610;49.916;8.284;2023-05-17T02:31:48;8.40;99.90
32097;DHT22;18610;49.916;8.284;2023-05-17T02:34:16;8.40;99.90
32097;DHT22;18610;49.916;8.284;2023-05-17T02:36:43;8.40;99.90
32097;DHT22;18610;49.916;8.284;2023-05-17T02:39:10;8.40;99.90
32097;DHT22;18610;49.916;8.284;2023-05-17T02:41:37;8.40;99.90
32097;DHT22;18610;49.916;8.284;2023-05-17T02:44:03;8.40;99.90
32097;DHT22;18610;49.916;8.284;2023-05-17T02:46:30;8.40;99.90
32097;DHT22;18610;49.916;8.284;2023-05-17T02:48:57;8.40;99.90
32097;DHT22;18610;49.916;8.284;2023-05-17T02:51:25;8.40;99.90
32097;DHT22;18610;49.916;8.284;2023-05-17T02:53:51;8.50;99.90
32097;DHT22;18610;49.916;8.284;2023-05-17T02:56:18;8.50;99.90
32097;DHT22;18610;49.916;8.284;2023-05-17T02:58:45;8.50;99.90
32097;DHT22;18610;49.916;8.284;2023-05-17T03:01:11;8.50;99.90
32097;DHT22;18610;49.916;8.284;2023-05-17T03:03:38;8.50;99.90
32097;DHT22;18610;49.916;8.284;2023-05-17T03:06:05;8.50;99.90
32097;DHT22;18610;49.916;8.284;2023-05-17T03:08:33;8.50;99.90
32097;DHT22;18610;49.916;8.284;2023-05-17T03:10:59;8.50;99.90
32097;DHT22;18610;49.916;8.284;2023-05-17T03:13:26;8.40;99.90
32097;DHT22;18610;49.916;8.284;2023-05-17T03:15:53;8.40;99.90
32097;DHT22;18610;49.916;8.284;2023-05-17T03:18:19;8.50;99.90
32097;DHT22;18610;49.916;8.284;2023-05-17T03:20:46;8.50;99.90
32097;DHT22;18610;49.916;8.284;2023-05-17T03:23:13;8.50;99.90
32097;DHT22;18610;49.916;8.284;2023-05-17T03:25:41;8.50;99.90
32097;DHT22;18610;49.916;8.284;2023-05-17T03:28:07;8.50;99.90
32097;DHT22;18610;49.916;8.284;2023-05-17T03:30:34;8.60;99.90
32097;DHT22;18610;49.916;8.284;2023-05-17T03:33:01;8.60;99.90
32097;DHT22;18610;49.916;8.284;2023-05-17T03:35:28;8.60;99.90
32097;DHT22;18610;49.916;8.284;2023-05-17T03:37:54;8.60;99.90
32097;DHT22;18610;49.916;8.284;2023-05-17T03:40:21;8.60;99.90
32097;DHT22;18610;49.916;8.284;2023-05-17T03:42:49;8.60;99.90
32097;DHT22;18610;49.916;8.284;2023-05-17T03:45:17;8.60;99.90
32097;DHT22;18610;49.916;8.284;2023-05-17T03:47:43;8.60;99.90
32097;DHT22;18610;49.916;8.284;2023-05-17T03:50:10;8.60;99.90
32097;DHT22;18610;49.916;8.284;2023-05-17T03:52:37;8.60;99.90
32097;DHT22;18610;49.916;8.284;2023-05-17T03:55:06;8.50;99.90
32097;DHT22;18610;49.916;8.284;2023-05-17T03:57:33;8.60;99.90
32097;DHT22;18610;49.916;8.284;2023-05-17T04:00:01;8.60;99.90
32097;DHT22;18610;49.916;8.284;2023-05-17T04:02:31;8.50;99.90
32097;DHT22;18610;49.916;8.284;2023-05-17T04:04:57;8.50;99.90
32097;DHT22;18610;49.916;8.284;2023-05-17T04:07:24;8.50;99.90
32097;DHT22;18610;49.916;8.284;2023-05-17T04:09:51;8.50;99.90
32097;DHT22;18610;49.916;8.284;2023-05-17T04:12:17;8.50;99.90
32097;DHT22;18610;49.916;8.284;2023-05-17T04:14:44;8.50;99.90
32097;DHT22;18610;49.916;8.284;2023-05-17T04:17:12;8.50;99.90
32097;DHT22;18610;49.916;8.284;2023-05-17T04:19:39;8.50;99.90
32097;DHT22;18610;49.916;8.284;2023-05-17T04:22:05;8.50;99.90
32097;DHT22;18610;49.916;8.284;2023-05-17T04:24:32;8.50;99.90
32097;DHT22;18610;49.916;8.284;2023-05-17T04:26:59;8.50;99.90
32097;DHT22;18610;49.916;8.284;2023-05-17T04:29:25;8.50;99.90
32097;DHT22;18610;49.916;8.284;2023-05-17T04:31:52;8.50;99.90
32097;DHT22;18610;49.916;8.284;2023-05-17T04:34:20;8.50;99.90
32097;DHT22;18610;49.916;8.284;2023-05-17T04:36:48;8.50;99.90
32097;DHT22;18610;49.916;8.284;2023-05-17T04:39:15;8.60;99.90
32097;DHT22;18610;49.916;8.284;2023-05-17T04:41:42;8.60;99.90
32097;DHT22;18610;49.916;8.284;2023-05-17T04:44:09;8.60;99.90
32097;DHT22;18610;49.916;8.284;2023-05-17T04:46:36;8.70;99.90
32097;DHT22;18610;49.916;8.284;2023-05-17T04:49:03;8.70;99.90
32097;DHT22;18610;49.916;8.284;2023-05-17T04:51:31;8.80;99.90
32097;DHT22;18610;49.916;8.284;2023-05-17T04:53:57;8.80;99.90
32097;DHT22;18610;49.916;8.284;2023-05-17T04:56:25;8.90;99.90
32097;DHT22;18610;49.916;8.284;2023-05-17T04:58:52;9.00;99.90
32097;DHT22;18610;49.916;8.284;2023-05-17T05:01:18;9.00;99.90
32097;DHT22;18610;49.916;8.284;2023-05-17T05:03:45;9.10;99.90
32097;DHT22;18610;49.916;8.284;2023-05-17T05:06:12;9.20;99.90
32097;DHT22;18610;49.916;8.284;2023-05-17T05:08:41;9.20;99.90
32097;DHT22;18610;49.916;8.284;2023-05-17T05:11:08;9.30;99.90
32097;DHT22;18610;49.916;8.284;2023-05-17T05:13:35;9.30;99.90
32097;DHT22;18610;49.916;8.284;2023-05-17T05:16:04;9.40;99.90
32097;DHT22;18610;49.916;8.284;2023-05-17T05:18:31;9.50;99.90
32097;DHT22;18610;49.916;8.284;2023-05-17T05:20:58;9.50;99.90
32097;DHT22;18610;49.916;8.284;2023-05-17T05:23:25;9.60;99.90
32097;DHT22;18610;49.916;8.284;2023-05-17T05:25:53;9.60;99.90
32097;DHT22;18610;49.916;8.284;2023-05-17T05:28:19;9.70;99.90
32097;DHT22;18610;49.916;8.284;2023-05-17T05:30:46;9.80;99.90
32097;DHT22;18610;49.916;8.284;2023-05-17T05:33:13;9.90;99.90
32097;DHT22;18610;49.916;8.284;2023-05-17T05:35:39;10.00;99.90
32097;DHT22;18610;49.916;8.284;2023-05-17T05:38:06;10.10;99.90
32097;DHT22;18610;49.916;8.284;2023-05-17T05:40:33;10.30;99.90
32097;DHT22;18610;49.916;8.284;2023-05-17T05:43:01;10.40;99.90
32097;DHT22;18610;49.916;8.284;2023-05-17T05:45:27;10.40;99.90
32097;DHT22;18610;49.916;8.284;2023-05-17T05:47:54;10.50;99.90
32097;DHT22;18610;49.916;8.284;2023-05-17T05:50:21;10.60;99.90
32097;DHT22;18610;49.916;8.284;2023-05-17T05:52:47;10.70;99.90
32097;DHT22;18610;49.916;8.284;2023-05-17T05:55:14;10.80;99.90
32097;DHT22;18610;49.916;8.284;2023-05-17T05:57:40;10.90;99.90
32097;DHT22;18610;49.916;8.284;2023-05-17T06:00:10;11.00;99.90
32097;DHT22;18610;49.916;8.284;2023-05-17T06:02:37;11.10;99.90
32097;DHT22;18610;49.916;8.284;2023-05-17T06:05:04;11.20;99.90
32097;DHT22;18610;49.916;8.284;2023-05-17T06:07:31;11.30;99.90
32097;DHT22;18610;49.916;8.284;2023-05-17T06:09:58;11.40;99.90
32097;DHT22;18610;49.916;8.284;2023-05-17T06:12:24;11.50;99.90
32097;DHT22;18610;49.916;8.284;2023-05-17T06:14:51;11.50;99.90
32097;DHT22;18610;49.916;8.284;2023-05-17T06:17:19;11.60;99.90
32097;DHT22;18610;49.916;8.284;2023-05-17T06:19:46;11.70;99.90
32097;DHT22;18610;49.916;8.284;2023-05-17T06:22:13;11.80;99.90
32097;DHT22;18610;49.916;8.284;2023-05-17T06:24:40;12.00;99.90
32097;DHT22;18610;49.916;8.284;2023-05-17T06:27:07;12.10;99.90
32097;DHT22;18610;49.916;8.284;2023-05-17T06:29:34;12.10;99.90
32097;DHT22;18610;49.916;8.284;2023-05-17T06:32:03;12.30;99.90
32097;DHT22;18610;49.916;8.284;2023-05-17T06:34:31;12.40;99.90
32097;DHT22;18610;49.916;8.284;2023-05-17T06:36:58;12.50;99.90
32097;DHT22;18610;49.916;8.284;2023-05-17T06:39:25;12.60;99.90
32097;DHT22;18610;49.916;8.284;2023-05-17T06:41:51;12.70;99.90
32097;DHT22;18610;49.916;8.284;2023-05-17T06:44:18;12.80;99.90
32097;DHT22;18610;49.916;8.284;2023-05-17T06:46:45;13.00;99.90
32097;DHT22;18610;49.916;8.284;2023-05-17T06:49:11;13.10;99.90
32097;DHT22;18610;49.916;8.284;2023-05-17T06:51:39;13.30;99.90
32097;DHT22;18610;49.916;8.284;2023-05-17T06:54:06;13.40;99.90
32097;DHT22;18610;49.916;8.284;2023-05-17T06:56:34;13.60;99.90
32097;DHT22;18610;49.916;8.284;2023-05-17T06:59:00;13.80;99.90
32097;DHT22;18610;49.916;8.284;2023-05-17T07:01:27;14.00;99.90
32097;DHT22;18610;49.916;8.284;2023-05-17T07:03:54;14.10;99.90
32097;DHT22;18610;49.916;8.284;2023-05-17T07:06:21;14.20;99.90
32097;DHT22;18610;49.916;8.284;2023-05-17T07:08:49;14.30;99.90
32097;DHT22;18610;49.916;8.284;2023-05-17T07:11:16;14.30;99.90
32097;DHT22;18610;49.916;8.284;2023-05-17T07:13:43;14.40;99.90
32097;DHT22;18610;49.916;8.284;2023-05-17T07:16:10;14.40;99.00
32097;DHT22;18610;49.916;8.284;2023-05-17T07:18:36;14.40;98.80
32097;DHT22;18610;49.916;8.284;2023-05-17T07:21:03;14.40;98.70
32097;DHT22;18610;49.916;8.284;2023-05-17T07:23:30;14.50;98.60
32097;DHT22;18610;49.916;8.284;2023-05-17T07:25:58;14.60;98.40
32097;DHT22;18610;49.916;8.284;2023-05-17T07:28:25;14.70;97.50
32097;DHT22;18610;49.916;8.284;2023-05-17T07:30:51;14.90;97.50
32097;DHT22;18610;49.916;8.284;2023-05-17T07:33:18;15.10;97.20
32097;DHT22;18610;49.916;8.284;2023-05-17T07:35:45;15.20;96.40
32097;DHT22;18610;49.916;8.284;2023-05-17T07:38:11;15.30;95.90
32097;DHT22;18610;49.916;8.284;2023-05-17T07:40:38;15.30;95.40
32097;DHT22;18610;49.916;8.284;2023-05-17T07:43:06;15.30;95.30
32097;DHT22;18610;49.916;8.284;2023-05-17T07:45:33;15.30;95.60
32097;DHT22;18610;49.916;8.284;2023-05-17T07:48:00;15.30;95.70
32097;DHT22;18610;49.916;8.284;2023-05-17T07:50:26;15.40;95.90
32097;DHT22;18610;49.916;8.284;2023-05-17T07:52:53;15.50;95.30
32097;DHT22;18610;49.916;8.284;2023-05-17T07:55:20;15.80;95.20
32097;DHT22;18610;49.916;8.284;2023-05-17T07:57:47;16.00;92.90
32097;DHT22;18610;49.916;8.284;2023-05-17T08:00:16;16.20;91.90
32097;DHT22;18610;49.916;8.284;2023-05-17T08:02:43;16.30;91.90
32097;DHT22;18610;49.916;8.284;2023-05-17T08:05:10;16.50;91.70
32097;DHT22;18610;49.916;8.284;2023-05-17T08:07:37;16.60;90.00
32097;DHT22;18610;49.916;8.284;2023-05-17T08:10:05;16.60;89.10
32097;DHT22;18610;49.916;8.284;2023-05-17T08:12:32;16.80;86.30
32097;DHT22;18610;49.916;8.284;2023-05-17T08:14:58;16.90;85.60
32097;DHT22;18610;49.916;8.284;2023-05-17T08:17:26;17.10;84.30
32097;DHT22;18610;49.916;8.284;2023-05-17T08:19:53;17.20;81.80
32097;DHT22;18610;49.916;8.284;2023-05-17T08:22:20;17.50;78.40
32097;DHT22;18610;49.916;8.284;2023-05-17T08:24:46;17.60;75.10
32097;DHT22;18610;49.916;8.284;2023-05-17T08:27:13;17.60;74.10
32097;DHT22;18610;49.916;8.284;2023-05-17T08:29:40;17.80;72.90
32097;DHT22;18610;49.916;8.284;2023-05-17T08:32:07;17.90;71.70
32097;DHT22;18610;49.916;8.284;2023-05-17T08:34:35;17.90;71.20
32097;DHT22;18610;49.916;8.284;2023-05-17T08:37:02;17.90;70.80
32097;DHT22;18610;49.916;8.284;2023-05-17T08:39:28;18.00;70.60
32097;DHT22;18610;49.916;8.284;2023-05-17T08:41:55;18.10;73.10
32097;DHT22;18610;49.916;8.284;2023-05-17T08:44:25;18.20;71.20
32097;DHT22;18610;49.916;8.284;2023-05-17T08:46:54;18.30;69.80
32097;DHT22;18610;49.916;8.284;2023-05-17T08:49:24;18.50;70.20
32097;DHT22;18610;49.916;8.284;2023-05-17T08:51:56;18.50;67.10
32097;DHT22;18610;49.916;8.284;2023-05-17T08:54:24;18.40;66.80
32097;DHT22;18610;49.916;8.284;2023-05-17T08:56:53;18.40;65.50
32097;DHT22;18610;49.916;8.284;2023-05-17T08:59:21;18.40;66.40
32097;DHT22;18610;49.916;8.284;2023-05-17T09:01:50;18.20;66.80
32097;DHT22;18610;49.916;8.284;2023-05-17T09:04:18;17.90;64.80
32097;DHT22;18610;49.916;8.284;2023-05-17T09:06:46;17.70;66.20
32097;DHT22;18610;49.916;8.284;2023-05-17T09:09:14;17.60;67.20
32097;DHT22;18610;49.916;8.284;2023-05-17T09:11:43;17.50;67.50
32097;DHT22;18610;49.916;8.284;2023-05-17T09:14:09;17.30;66.60
32097;DHT22;18610;49.916;8.284;2023-05-17T09:16:36;17.10;67.00
32097;DHT22;18610;49.916;8.284;2023-05-17T09:19:05;17.00;68.20
32097;DHT22;18610;49.916;8.284;2023-05-17T09:21:33;16.90;69.10
32097;DHT22;18610;49.916;8.284;2023-05-17T09:24:01;16.90;69.20
32097;DHT22;18610;49.916;8.284;2023-05-17T09:26:38;16.80;72.20
32097;DHT22;18610;49.916;8.284;2023-05-17T09:29:09;16.80;74.90
32097;DHT22;18610;49.916;8.284;2023-05-17T09:31:36;16.70;76.10
32097;DHT22;18610;49.916;8.284;2023-05-17T09:34:03;16.70;75.90
32097;DHT22;18610;49.916;8.284;2023-05-17T09:36:31;16.90;76.90
32097;DHT22;18610;49.916;8.284;2023-05-17T09:38:59;17.10;76.50
32097;DHT22;18610;49.916;8.284;2023-05-17T09:41:26;17.40;74.70
32097;DHT22;18610;49.916;8.284;2023-05-17T09:43:57;17.80;73.20
32097;DHT22;18610;49.916;8.284;2023-05-17T09:46:25;18.20;71.50
32097;DHT22;18610;49.916;8.284;2023-05-17T09:48:52;18.50;68.30
32097;DHT22;18610;49.916;8.284;2023-05-17T09:51:30;18.80;67.60
32097;DHT22;18610;49.916;8.284;2023-05-17T09:53:58;19.20;62.80
32097;DHT22;18610;49.916;8.284;2023-05-17T09:56:27;19.20;60.60
32097;DHT22;18610;49.916;8.284;2023-05-17T09:58:55;19.20;60.80
32097;DHT22;18610;49.916;8.284;2023-05-17T10:01:25;19.10;60.90
32097;DHT22;18610;49.916;8.284;2023-05-17T10:03:53;19.00;62.40
32097;DHT22;18610;49.916;8.284;2023-05-17T10:06:21;18.80;60.60
32097;DHT22;18610;49.916;8.284;2023-05-17T10:08:51;18.60;61.00
32097;DHT22;18610;49.916;8.284;2023-05-17T10:11:21;18.40;62.50
32097;DHT22;18610;49.916;8.284;2023-05-17T10:14:00;18.30;64.50
32097;DHT22;18610;49.916;8.284;2023-05-17T10:16:31;18.20;63.90
32097;DHT22;18610;49.916;8.284;2023-05-17T10:18:59;18.00;64.40
32097;DHT22;18610;49.916;8.284;2023-05-17T10:21:26;17.90;65.70
32097;DHT22;18610;49.916;8.284;2023-05-17T10:23:54;17.90;67.20
32097;DHT22;18610;49.916;8.284;2023-05-17T10:26:21;17.80;67.50
32097;DHT22;18610;49.916;8.284;2023-05-17T10:28:49;17.80;65.60
32097;DHT22;18610;49.916;8.284;2023-05-17T10:31:19;17.80;65.90
32097;DHT22;18610;49.916;8.284;2023-05-17T10:33:49;17.80;65.70
32097;DHT22;18610;49.916;8.284;2023-05-17T10:36:16;17.90;65.80
32097;DHT22;18610;49.916;8.284;2023-05-17T10:38:44;18.10;66.50
32097;DHT22;18610;49.916;8.284;2023-05-17T10:41:12;18.30;66.80
32097;DHT22;18610;49.916;8.284;2023-05-17T10:43:40;18.50;66.00
32097;DHT22;18610;49.916;8.284;2023-05-17T10:46:11;18.70;65.10
32097;DHT22;18610;49.916;8.284;2023-05-17T10:48:39;19.20;63.60
32097;DHT22;18610;49.916;8.284;2023-05-17T10:51:07;19.60;62.20
32097;DHT22;18610;49.916;8.284;2023-05-17T10:54:03;20.00;62.40
32097;DHT22;18610;49.916;8.284;2023-05-17T10:56:30;20.40;61.30
32097;DHT22;18610;49.916;8.284;2023-05-17T10:59:18;20.60;59.30
32097;DHT22;18610;49.916;8.284;2023-05-17T11:01:55;20.60;57.90
32097;DHT22;18610;49.916;8.284;2023-05-17T11:04:24;20.70;56.90
32097;DHT22;18610;49.916;8.284;2023-05-17T11:06:54;20.90;56.80
32097;DHT22;18610;49.916;8.284;2023-05-17T11:09:41;21.00;56.20
32097;DHT22;18610;49.916;8.284;2023-05-17T11:12:09;21.30;56.40
32097;DHT22;18610;49.916;8.284;2023-05-17T11:14:57;21.60;55.10
32097;DHT22;18610;49.916;8.284;2023-05-17T11:17:26;21.80;53.40
32097;DHT22;18610;49.916;8.284;2023-05-17T11:20:00;21.90;52.60
32097;DHT22;18610;49.916;8.284;2023-05-17T11:22:35;21.70;52.40
32097;DHT22;18610;49.916;8.284;2023-05-17T11:25:06;21.50;51.50
32097;DHT22;18610;49.916;8.284;2023-05-17T11:27:36;21.30;52.10
32097;DHT22;18610;49.916;8.284;2023-05-17T11:30:15;21.40;52.90
32097;DHT22;18610;49.916;8.284;2023-05-17T11:32:46;21.50;52.80
32097;DHT22;18610;49.916;8.284;2023-05-17T11:35:16;21.80;53.20
32097;DHT22;18610;49.916;8.284;2023-05-17T11:37:44;22.20;53.10
32097;DHT22;18610;49.916;8.284;2023-05-17T11:40:12;22.10;53.80
32097;DHT22;18610;49.916;8.284;2023-05-17T11:42:39;21.80;54.50
32097;DHT22;18610;49.916;8.284;2023-05-17T11:45:07;21.40;53.70
32097;DHT22;18610;49.916;8.284;2023-05-17T11:47:38;21.20;55.00
32097;DHT22;18610;49.916;8.284;2023-05-17T11:50:07;21.10;54.10
32097;DHT22;18610;49.916;8.284;2023-05-17T11:52:35;21.10;53.40
32097;DHT22;18610;49.916;8.284;2023-05-17T11:55:04;21.00;54.60
32097;DHT22;18610;49.916;8.284;2023-05-17T11:57:31;21.10;53.40
32097;DHT22;18610;49.916;8.284;2023-05-17T11:59:59;21.10;53.00
32097;DHT22;18610;49.916;8.284;2023-05-17T12:02:29;20.90;53.60
32097;DHT22;18610;49.916;8.284;2023-05-17T12:04:56;20.80;53.80
32097;DHT22;18610;49.916;8.284;2023-05-17T12:07:24;21.00;54.40
32097;DHT22;18610;49.916;8.284;2023-05-17T12:09:51;21.40;54.20
32097;DHT22;18610;49.916;8.284;2023-05-17T12:12:19;21.70;51.10
32097;DHT22;18610;49.916;8.284;2023-05-17T12:14:47;22.00;49.70
32097;DHT22;18610;49.916;8.284;2023-05-17T12:17:22;22.30;50.40
32097;DHT22;18610;49.916;8.284;2023-05-17T12:19:53;22.70;50.80
32097;DHT22;18610;49.916;8.284;2023-05-17T12:22:20;22.70;49.20
32097;DHT22;18610;49.916;8.284;2023-05-17T12:24:46;22.50;50.50
32097;DHT22;18610;49.916;8.284;2023-05-17T12:27:13;22.30;50.50
32097;DHT22;18610;49.916;8.284;2023-05-17T12:29:41;22.00;50.00
32097;DHT22;18610;49.916;8.284;2023-05-17T12:32:09;21.90;50.60
32097;DHT22;18610;49.916;8.284;2023-05-17T12:34:36;22.10;50.20
32097;DHT22;18610;49.916;8.284;2023-05-17T12:37:03;22.30;48.20
32097;DHT22;18610;49.916;8.284;2023-05-17T12:39:34;22.60;47.10
32097;DHT22;18610;49.916;8.284;2023-05-17T12:42:01;22.60;47.80
32097;DHT22;18610;49.916;8.284;2023-05-17T12:44:28;22.40;46.30
32097;DHT22;18610;49.916;8.284;2023-05-17T12:46:57;22.20;47.80
32097;DHT22;18610;49.916;8.284;2023-05-17T12:49:27;22.00;49.10
32097;DHT22;18610;49.916;8.284;2023-05-17T12:51:54;21.70;49.50
32097;DHT22;18610;49.916;8.284;2023-05-17T12:54:27;21.50;50.10
32097;DHT22;18610;49.916;8.284;2023-05-17T12:56:55;21.70;50.60
32097;DHT22;18610;49.916;8.284;2023-05-17T12:59:22;22.10;48.80
32097;DHT22;18610;49.916;8.284;2023-05-17T13:01:51;22.40;47.70
32097;DHT22;18610;49.916;8.284;2023-05-17T13:04:28;22.50;47.50
32097;DHT22;18610;49.916;8.284;2023-05-17T13:06:57;22.50;48.20
32097;DHT22;18610;49.916;8.284;2023-05-17T13:09:25;22.30;47.30
32097;DHT22;18610;49.916;8.284;2023-05-17T13:11:53;22.20;48.20
32097;DHT22;18610;49.916;8.284;2023-05-17T13:14:33;22.20;49.70
32097;DHT22;18610;49.916;8.284;2023-05-17T13:17:00;22.30;49.60
32097;DHT22;18610;49.916;8.284;2023-05-17T13:19:28;22.50;48.00
32097;DHT22;18610;49.916;8.284;2023-05-17T13:21:55;22.60;47.20
32097;DHT22;18610;49.916;8.284;2023-05-17T13:24:23;22.80;46.90
32097;DHT22;18610;49.916;8.284;2023-05-17T13:26:50;22.80;48.30
32097;DHT22;18610;49.916;8.284;2023-05-17T13:29:17;22.90;47.40
32097;DHT22;18610;49.916;8.284;2023-05-17T13:31:43;23.00;46.60
32097;DHT22;18610;49.916;8.284;2023-05-17T13:34:11;23.20;47.70
32097;DHT22;18610;49.916;8.284;2023-05-17T13:36:39;23.40;48.20
32097;DHT22;18610;49.916;8.284;2023-05-17T13:39:06;23.60;47.10
32097;DHT22;18610;49.916;8.284;2023-05-17T13:41:33;23.70;45.30
32097;DHT22;18610;49.916;8.284;2023-05-17T13:44:00;23.70;44.60
32097;DHT22;18610;49.916;8.284;2023-05-17T13:46:27;23.70;46.10
32097;DHT22;18610;49.916;8.284;2023-05-17T13:48:53;23.70;45.90
32097;DHT22;18610;49.916;8.284;2023-05-17T13:51:20;23.50;44.70
32097;DHT22;18610;49.916;8.284;2023-05-17T13:53:48;23.40;45.30
32097;DHT22;18610;49.916;8.284;2023-05-17T13:56:15;23.30;45.00
32097;DHT22;18610;49.916;8.284;2023-05-17T13:58:41;23.40;46.00
32097;DHT22;18610;49.916;8.284;2023-05-17T14:01:08;23.70;46.40
32097;DHT22;18610;49.916;8.284;2023-05-17T14:03:35;23.80;45.00
32097;DHT22;18610;49.916;8.284;2023-05-17T14:06:02;24.00;45.40
32097;DHT22;18610;49.916;8.284;2023-05-17T14:08:29;24.10;44.80
32097;DHT22;18610;49.916;8.284;2023-05-17T14:10:57;24.20;43.60
32097;DHT22;18610;49.916;8.284;2023-05-17T14:13:24;24.20;43.90
32097;DHT22;18610;49.916;8.284;2023-05-17T14:15:51;24.20;44.00
32097;DHT22;18610;49.916;8.284;2023-05-17T14:18:18;24.10;45.10
32097;DHT22;18610;49.916;8.284;2023-05-17T14:20:45;24.00;45.10
32097;DHT22;18610;49.916;8.284;2023-05-17T14:23:12;23.90;45.40
32097;DHT22;18610;49.916;8.284;2023-05-17T14:25:39;23.70;44.30
32097;DHT22;18610;49.916;8.284;2023-05-17T14:28:09;23.50;45.00
32097;DHT22;18610;49.916;8.284;2023-05-17T14:30:37;23.30;46.50
32097;DHT22;18610;49.916;8.284;2023-05-17T14:33:04;23.20;45.10
32097;DHT22;18610;49.916;8.284;2023-05-17T14:35:31;23.10;45.20
32097;DHT22;18610;49.916;8.284;2023-05-17T14:37:58;23.10;45.90
32097;DHT22;18610;49.916;8.284;2023-05-17T14:40:24;23.00;44.90
32097;DHT22;18610;49.916;8.284;2023-05-17T14:42:51;22.80;45.20
32097;DHT22;18610;49.916;8.284;2023-05-17T14:45:19;22.70;46.60
32097;DHT22;18610;49.916;8.284;2023-05-17T14:47:46;22.60;47.20
32097;DHT22;18610;49.916;8.284;2023-05-17T14:50:13;22.50;46.90
32097;DHT22;18610;49.916;8.284;2023-05-17T14:52:39;22.40;47.40
32097;DHT22;18610;49.916;8.284;2023-05-17T14:55:06;22.40;47.50
32097;DHT22;18610;49.916;8.284;2023-05-17T14:57:34;22.40;46.10
32097;DHT22;18610;49.916;8.284;2023-05-17T15:00:01;22.40;46.20
32097;DHT22;18610;49.916;8.284;2023-05-17T15:02:35;22.40;46.20
32097;DHT22;18610;49.916;8.284;2023-05-17T15:05:02;22.60;45.80
32097;DHT22;18610;49.916;8.284;2023-05-17T15:07:29;22.50;45.60
32097;DHT22;18610;49.916;8.284;2023-05-17T15:09:55;22.50;46.50
32097;DHT22;18610;49.916;8.284;2023-05-17T15:12:22;22.60;46.60
32097;DHT22;18610;49.916;8.284;2023-05-17T15:14:49;22.50;46.30
32097;DHT22;18610;49.916;8.284;2023-05-17T15:17:16;22.50;46.30
32097;DHT22;18610;49.916;8.284;2023-05-17T15:19:44;22.50;46.50
32097;DHT22;18610;49.916;8.284;2023-05-17T15:22:11;22.40;46.40
32097;DHT22;18610;49.916;8.284;2023-05-17T15:24:38;22.20;46.80
32097;DHT22;18610;49.916;8.284;2023-05-17T15:27:05;22.00;47.80
32097;DHT22;18610;49.916;8.284;2023-05-17T15:29:32;21.70;48.50
32097;DHT22;18610;49.916;8.284;2023-05-17T15:31:59;21.50;48.70
32097;DHT22;18610;49.916;8.284;2023-05-17T15:34:25;21.40;48.70
32097;DHT22;18610;49.916;8.284;2023-05-17T15:36:55;21.40;49.00
32097;DHT22;18610;49.916;8.284;2023-05-17T15:39:22;21.40;49.30